createdAt,value
2018-12-02T00:00:38.326Z,15.40
2018-12-02T00:03:08.263Z,20.23
2018-12-02T00:05:37.561Z,15.03
2018-12-02T00:08:07.049Z,17.90
2018-12-02T00:10:36.183Z,18.90
2018-12-02T00:13:04.895Z,21.17
2018-12-02T00:15:34.409Z,18.77
2018-12-02T00:18:02.892Z,19.33
2018-12-02T00:20:31.383Z,22.23
2018-12-02T00:22:59.875Z,16.87
2018-12-02T00:25:28.364Z,16.80
2018-12-02T00:27:58.313Z,13.77
2018-12-02T00:30:27.913Z,9.50
2018-12-02T00:32:56.457Z,8.00
2018-12-02T00:35:24.918Z,6.90
2018-12-02T00:37:55.576Z,13.83
2018-12-02T00:40:24.380Z,18.80
2018-12-02T00:42:54.820Z,12.00
2018-12-02T00:45:24.466Z,13.63
2018-12-02T00:47:52.934Z,14.53
2018-12-02T00:50:21.506Z,15.80
2018-12-02T00:52:51.388Z,14.83
2018-12-02T00:55:21.292Z,12.97
2018-12-02T00:57:49.830Z,13.17
2018-12-02T01:00:18.331Z,17.77
2018-12-02T01:02:47.983Z,17.63
2018-12-02T01:05:18.418Z,26.20
2018-12-02T01:07:46.915Z,22.13
2018-12-02T01:10:16.705Z,22.23
2018-12-02T01:12:45.730Z,17.57
2018-12-02T01:15:15.370Z,40.83
2018-12-02T01:17:44.009Z,26.93
2018-12-02T01:20:14.513Z,50.10
2018-12-02T01:22:43.226Z,84.00
2018-12-02T01:25:12.527Z,62.17
2018-12-02T01:27:41.396Z,90.73
2018-12-02T01:30:16.716Z,55.97
2018-12-02T01:32:45.429Z,77.73
2018-12-02T01:35:14.897Z,16.77
2018-12-02T01:37:43.368Z,21.03
2018-12-02T01:40:13.009Z,13.73
2018-12-02T01:42:41.562Z,7.40
2018-12-02T01:45:15.091Z,6.83
2018-12-02T01:47:43.600Z,9.67
2018-12-02T01:50:16.999Z,13.97
2018-12-02T01:52:46.679Z,21.30
2018-12-02T01:55:15.195Z,15.83
2018-12-02T01:57:43.733Z,15.97
2018-12-02T02:00:15.442Z,14.80
2018-12-02T02:02:44.112Z,10.33
2018-12-02T02:05:12.778Z,8.50
2018-12-02T02:07:41.241Z,6.33
2018-12-02T02:10:15.674Z,9.33
2018-12-02T02:12:44.142Z,7.37
2018-12-02T02:15:13.881Z,6.40
2018-12-02T02:17:42.439Z,6.20
2018-12-02T02:20:12.901Z,5.13
2018-12-02T02:22:41.502Z,5.97
2018-12-02T02:25:11.073Z,5.10
2018-12-02T02:27:40.256Z,6.33
2018-12-02T02:30:13.471Z,6.77
2018-12-02T02:32:41.944Z,5.73
2018-12-02T02:35:10.847Z,6.30
2018-12-02T02:37:39.863Z,6.40
2018-12-02T02:40:13.647Z,10.00
2018-12-02T02:42:42.138Z,8.17
2018-12-02T02:45:11.656Z,7.57
2018-12-02T02:47:40.127Z,7.30
2018-12-02T02:50:20.413Z,13.03
2018-12-02T02:52:56.020Z,16.03
2018-12-02T02:55:24.472Z,9.67
2018-12-02T02:57:52.979Z,15.93
2018-12-02T03:00:22.472Z,17.77
2018-12-02T03:02:51.082Z,9.57
2018-12-02T03:05:19.551Z,16.33
2018-12-02T03:07:48.273Z,16.03
2018-12-02T03:10:17.773Z,14.10
2018-12-02T03:12:48.187Z,9.30
2018-12-02T03:15:17.635Z,14.43
2018-12-02T03:17:46.100Z,11.77
2018-12-02T03:20:21.416Z,9.30
2018-12-02T03:22:51.711Z,13.80
2018-12-02T03:25:21.233Z,16.23
2018-12-02T03:27:49.721Z,20.60
2018-12-02T03:30:23.074Z,12.50
2018-12-02T03:32:51.594Z,7.93
2018-12-02T03:35:22.074Z,7.80
2018-12-02T03:37:51.127Z,7.53
2018-12-02T03:40:20.815Z,16.63
2018-12-02T03:42:50.106Z,12.80
2018-12-02T03:45:19.622Z,14.90
2018-12-02T03:47:48.168Z,13.93
2018-12-02T03:50:22.551Z,15.93
2018-12-02T03:52:51.046Z,18.10
2018-12-02T03:55:19.554Z,16.10
2018-12-02T03:57:48.238Z,19.90
2018-12-02T04:00:26.631Z,16.30
2018-12-02T04:02:56.224Z,15.73
2018-12-02T04:05:25.727Z,14.17
2018-12-02T04:07:54.453Z,10.87
2018-12-02T04:10:22.997Z,17.67
2018-12-02T04:12:52.603Z,12.47
2018-12-02T04:15:24.084Z,2.70
2018-12-02T04:17:52.565Z,2.50
2018-12-02T04:20:21.511Z,3.10
2018-12-02T04:22:51.017Z,11.90
2018-12-02T04:25:26.878Z,15.20
2018-12-02T04:27:55.370Z,3.43
2018-12-02T04:30:24.306Z,2.17
2018-12-02T04:32:53.500Z,2.40
2018-12-02T04:35:23.023Z,3.00
2018-12-02T04:37:51.596Z,3.00
2018-12-02T04:40:20.077Z,2.33
2018-12-02T04:42:48.748Z,2.60
2018-12-02T04:45:18.293Z,2.90
2018-12-02T04:47:47.109Z,2.73
2018-12-02T04:50:19.483Z,2.83
2018-12-02T04:52:47.945Z,2.40
2018-12-02T04:55:16.445Z,2.40
2018-12-02T04:57:44.958Z,2.80
2018-12-02T05:00:17.486Z,3.63
2018-12-02T05:02:49.719Z,2.50
2018-12-02T05:05:20.414Z,2.40
2018-12-02T05:07:48.904Z,2.80
2018-12-02T05:10:18.472Z,3.30
2018-12-02T05:12:47.343Z,3.57
2018-12-02T05:15:16.758Z,3.60
2018-12-02T05:17:45.253Z,3.83
2018-12-02T05:20:15.772Z,4.83
2018-12-02T05:22:44.331Z,4.47
2018-12-02T05:25:17.371Z,4.63
2018-12-02T05:27:42.870Z,4.97
2018-12-02T05:30:14.821Z,5.33
2018-12-02T05:32:43.904Z,5.13
2018-12-02T05:35:13.513Z,5.93
2018-12-02T05:37:42.166Z,5.80
2018-12-02T05:40:14.706Z,6.00
2018-12-02T05:42:43.314Z,5.70
2018-12-02T05:45:13.680Z,6.20
2018-12-02T05:47:42.227Z,5.33
2018-12-02T05:50:26.152Z,5.77
2018-12-02T05:52:56.761Z,5.10
2018-12-02T05:55:27.359Z,5.90
2018-12-02T05:57:55.829Z,5.70
2018-12-02T06:00:24.318Z,7.00
2018-12-02T06:02:52.785Z,7.07
2018-12-02T06:05:21.250Z,7.27
2018-12-02T06:07:49.742Z,8.27
2018-12-02T06:10:19.381Z,7.17
2018-12-02T06:12:47.849Z,7.63
2018-12-02T06:15:18.264Z,7.77
2018-12-02T06:17:46.895Z,7.67
2018-12-02T06:20:22.617Z,8.60
2018-12-02T06:22:53.046Z,8.40
2018-12-02T06:25:21.589Z,9.13
2018-12-02T06:27:50.101Z,9.37
2018-12-02T06:30:21.513Z,8.30
2018-12-02T06:32:53.194Z,7.43
2018-12-02T06:35:21.691Z,6.20
2018-12-02T06:37:50.863Z,5.50
2018-12-02T06:40:23.498Z,5.30
2018-12-02T06:42:52.521Z,5.33
2018-12-02T06:45:21.255Z,4.57
2018-12-02T06:47:49.802Z,4.70
2018-12-02T06:50:20.486Z,4.23
2018-12-02T06:52:48.931Z,4.73
2018-12-02T06:55:36.398Z,4.60
2018-12-02T06:59:42.263Z,5.10
2018-12-02T07:02:27.131Z,5.20
2018-12-02T07:04:55.614Z,6.20
2018-12-02T07:07:24.090Z,6.80
2018-12-02T07:09:52.561Z,6.80
2018-12-02T07:12:21.126Z,6.40
2018-12-02T07:14:49.636Z,6.93
2018-12-02T07:17:18.594Z,6.87
2018-12-02T07:19:49.422Z,5.83
2018-12-02T07:22:25.437Z,5.50
2018-12-02T07:24:56.281Z,5.33
2018-12-02T07:27:24.783Z,5.00
2018-12-02T07:29:53.263Z,4.40
2018-12-02T07:32:21.769Z,3.53
2018-12-02T07:34:50.375Z,2.70
2018-12-02T07:37:21.637Z,2.50
2018-12-02T07:39:59.771Z,2.50
2018-12-02T07:42:28.241Z,2.43
2018-12-02T07:44:56.785Z,2.63
2018-12-02T07:47:25.253Z,3.30
2018-12-02T07:49:53.751Z,3.40
2018-12-02T07:52:22.247Z,3.70
2018-12-02T07:54:50.725Z,3.97
2018-12-02T07:57:19.192Z,3.57
2018-12-02T07:59:47.832Z,3.53
2018-12-02T08:02:16.567Z,3.37
2018-12-02T08:04:45.041Z,3.23
2018-12-02T08:07:13.493Z,3.10
2018-12-02T08:09:41.972Z,3.80
2018-12-02T08:12:10.506Z,8.90
2018-12-02T08:14:38.980Z,8.90
2018-12-02T08:17:09.678Z,5.43
2018-12-02T08:19:38.195Z,2.90
2018-12-02T08:22:07.089Z,3.10
2018-12-02T08:24:35.723Z,2.90
2018-12-02T08:27:04.179Z,3.80
2018-12-02T08:29:33.387Z,2.90
2018-12-02T08:32:02.571Z,3.10
2018-12-02T08:34:31.812Z,3.33
2018-12-02T08:37:01.157Z,3.57
2018-12-02T08:39:29.873Z,3.00
2018-12-02T08:41:58.340Z,3.43
2018-12-02T08:44:26.815Z,3.03
2018-12-02T08:46:55.328Z,2.93
2018-12-02T08:49:23.994Z,3.23
2018-12-02T08:51:52.566Z,3.03
2018-12-02T08:54:21.072Z,3.00
2018-12-02T08:56:49.561Z,2.20
2018-12-02T08:59:18.154Z,2.43
2018-12-02T09:01:46.669Z,2.20
2018-12-02T09:04:15.186Z,2.47
2018-12-02T09:06:43.674Z,2.40
2018-12-02T09:09:12.360Z,2.67
2018-12-02T09:11:40.989Z,2.97
2018-12-02T09:14:09.448Z,2.93
2018-12-02T09:16:37.908Z,3.30
2018-12-02T09:19:06.626Z,3.57
2018-12-02T09:21:35.098Z,3.97
2018-12-02T09:24:03.576Z,4.57
2018-12-02T09:26:32.060Z,5.40
2018-12-02T09:29:01.530Z,5.53
2018-12-02T09:31:29.981Z,5.73
2018-12-02T09:33:58.485Z,5.40
2018-12-02T09:36:27.031Z,5.63
2018-12-02T09:38:55.637Z,4.90
2018-12-02T09:41:24.087Z,4.43
2018-12-02T09:43:55.524Z,4.30
2018-12-02T09:46:24.005Z,4.50
2018-12-02T09:48:52.519Z,3.80
2018-12-02T09:51:21.136Z,4.53
2018-12-02T09:53:49.602Z,3.60
2018-12-02T09:56:18.083Z,3.40
2018-12-02T09:58:46.571Z,3.07
2018-12-02T10:01:15.038Z,3.30
2018-12-02T10:03:43.612Z,3.63
2018-12-02T10:06:12.252Z,3.50
2018-12-02T10:08:40.736Z,3.80
2018-12-02T10:11:09.284Z,3.27
2018-12-02T10:13:37.758Z,3.13
2018-12-02T10:16:06.527Z,3.53
2018-12-02T10:18:35.034Z,3.40
2018-12-02T10:21:03.725Z,3.37
2018-12-02T10:23:32.258Z,4.40
2018-12-02T10:26:00.772Z,3.30
2018-12-02T10:28:29.294Z,3.43
2018-12-02T10:30:57.778Z,3.27
2018-12-02T10:33:26.324Z,3.70
2018-12-02T10:35:54.880Z,3.90
2018-12-02T10:38:23.370Z,3.57
2018-12-02T10:40:51.844Z,3.30
2018-12-02T10:43:20.346Z,3.67
2018-12-02T10:45:48.856Z,3.10
2018-12-02T10:48:17.324Z,3.53
2018-12-02T10:50:45.965Z,3.80
2018-12-02T10:53:17.322Z,2.90
2018-12-02T10:55:50.013Z,3.37
2018-12-02T10:58:35.726Z,3.17
2018-12-02T11:01:10.424Z,2.63
2018-12-02T11:03:38.906Z,2.40
2018-12-02T11:06:07.468Z,2.57
2018-12-02T11:08:35.962Z,2.80
2018-12-02T11:11:05.382Z,2.80
2018-12-02T11:13:34.867Z,3.37
2018-12-02T11:16:03.492Z,3.10
2018-12-02T11:18:32.045Z,2.80
2018-12-02T11:21:00.738Z,3.50
2018-12-02T11:23:29.529Z,3.77
2018-12-02T11:25:58.535Z,3.40
2018-12-02T11:28:27.091Z,4.13
2018-12-02T11:30:56.545Z,4.20
2018-12-02T11:33:25.058Z,3.60
2018-12-02T11:35:53.550Z,3.57
2018-12-02T11:38:22.037Z,5.07
2018-12-02T11:40:50.543Z,3.57
2018-12-02T11:43:19.034Z,3.93
2018-12-02T11:45:47.517Z,3.23
2018-12-02T11:48:16.120Z,3.40
2018-12-02T11:50:44.611Z,3.33
2018-12-02T11:53:13.106Z,3.10
2018-12-02T11:55:41.707Z,3.30
2018-12-02T11:58:10.176Z,2.97
2018-12-02T12:00:40.308Z,3.43
2018-12-02T12:03:08.812Z,2.77
2018-12-02T12:05:38.487Z,3.20
2018-12-02T12:08:09.814Z,2.70
2018-12-02T12:10:38.326Z,2.70
2018-12-02T12:13:07.044Z,2.67
2018-12-02T12:15:36.466Z,3.00
2018-12-02T12:18:05.394Z,2.57
2018-12-02T12:20:36.784Z,2.13
2018-12-02T12:23:05.645Z,2.50
2018-12-02T12:25:34.454Z,2.30
2018-12-02T12:28:03.051Z,2.10
2018-12-02T12:30:32.396Z,2.37
2018-12-02T12:33:01.068Z,3.03
2018-12-02T12:35:29.520Z,2.37
2018-12-02T12:37:58.075Z,2.43
2018-12-02T12:40:31.927Z,2.30
2018-12-02T12:43:05.175Z,2.20
2018-12-02T12:45:33.659Z,2.60
2018-12-02T12:48:02.257Z,2.17
2018-12-02T12:50:30.772Z,2.33
2018-12-02T12:52:59.235Z,2.33
2018-12-02T12:55:29.013Z,2.03
2018-12-02T12:57:56.354Z,2.20
2018-12-02T13:00:25.321Z,2.07
2018-12-02T13:02:53.836Z,1.90
2018-12-02T13:05:23.760Z,2.10
2018-12-02T13:07:52.837Z,1.80
2018-12-02T13:10:21.319Z,2.20
2018-12-02T13:12:49.822Z,2.10
2018-12-02T13:15:22.976Z,1.90
2018-12-02T13:17:54.399Z,1.80
2018-12-02T13:20:23.239Z,2.13
2018-12-02T13:22:51.918Z,2.40
2018-12-02T13:25:20.406Z,1.90
2018-12-02T13:27:49.087Z,2.60
2018-12-02T13:30:18.726Z,1.87
2018-12-02T13:32:48.578Z,1.67
2018-12-02T13:35:17.054Z,1.90
2018-12-02T13:37:45.690Z,2.37
2018-12-02T13:40:18.451Z,2.80
2018-12-02T13:42:54.359Z,2.13
2018-12-02T13:45:24.070Z,2.40
2018-12-02T13:47:52.570Z,2.10
2018-12-02T13:50:21.617Z,1.57
2018-12-02T13:52:51.414Z,1.77
2018-12-02T13:55:21.237Z,2.30
2018-12-02T13:57:49.920Z,3.10
2018-12-02T14:00:21.443Z,2.47
2018-12-02T14:02:54.337Z,2.57
2018-12-02T14:05:22.839Z,2.60
2018-12-02T14:07:51.328Z,2.40
2018-12-02T14:10:19.795Z,2.17
2018-12-02T14:12:54.725Z,2.30
2018-12-02T14:15:30.384Z,1.93
2018-12-02T14:18:02.761Z,2.10
2018-12-02T14:20:31.253Z,2.20
2018-12-02T14:22:59.739Z,2.30
2018-12-02T14:25:28.468Z,2.50
2018-12-02T14:27:56.949Z,2.20
2018-12-02T14:30:25.479Z,2.20
2018-12-02T14:32:53.949Z,2.87
2018-12-02T14:35:22.419Z,2.90
2018-12-02T14:37:51.088Z,2.43
2018-12-02T14:40:19.584Z,1.90
2018-12-02T14:42:48.110Z,2.00
2018-12-02T14:45:17.561Z,2.70
2018-12-02T14:47:46.081Z,2.70
2018-12-02T14:50:16.632Z,2.17
2018-12-02T14:52:46.839Z,2.27
2018-12-02T14:55:16.875Z,1.87
2018-12-02T14:57:45.378Z,2.50
2018-12-02T15:00:15.934Z,2.27
2018-12-02T15:02:44.732Z,2.30
2018-12-02T15:05:13.850Z,1.87
2018-12-02T15:07:44.312Z,2.50
2018-12-02T15:10:15.590Z,2.77
2018-12-02T15:12:45.024Z,2.40
2018-12-02T15:15:14.725Z,2.97
2018-12-02T15:17:43.902Z,3.10
2018-12-02T15:20:15.523Z,3.27
2018-12-02T15:22:44.017Z,3.37
2018-12-02T15:25:13.588Z,4.00
2018-12-02T15:27:42.719Z,3.40
2018-12-02T15:30:14.278Z,4.83
2018-12-02T15:32:44.868Z,3.00
2018-12-02T15:35:13.412Z,3.23
2018-12-02T15:37:42.185Z,2.53
2018-12-02T15:40:15.008Z,3.20
2018-12-02T15:42:46.137Z,3.67
2018-12-02T15:45:15.477Z,3.93
2018-12-02T15:47:44.164Z,3.00
2018-12-02T15:50:18.626Z,3.60
2018-12-02T15:52:47.503Z,3.70
2018-12-02T15:55:18.592Z,4.13
2018-12-02T15:57:47.258Z,2.80
2018-12-02T16:00:19.017Z,3.30
2018-12-02T16:02:47.518Z,2.87
2018-12-02T16:05:16.028Z,2.43
2018-12-02T16:07:44.566Z,2.50
2018-12-02T16:10:13.958Z,2.00
2018-12-02T16:12:47.580Z,2.00
2018-12-02T16:15:17.396Z,2.23
2018-12-02T16:17:46.959Z,2.60
2018-12-02T16:20:17.132Z,3.00
2018-12-02T16:22:45.650Z,2.87
2018-12-02T16:25:14.149Z,3.03
2018-12-02T16:27:42.658Z,2.93
2018-12-02T16:30:14.353Z,3.27
2018-12-02T16:32:43.911Z,4.23
2018-12-02T16:35:13.532Z,4.07
2018-12-02T16:37:42.217Z,4.20
2018-12-02T16:40:13.384Z,4.40
2018-12-02T16:42:41.918Z,4.03
2018-12-02T16:45:12.579Z,3.80
2018-12-02T16:47:41.662Z,4.13
2018-12-02T16:50:18.049Z,4.33
2018-12-02T16:52:46.559Z,3.53
2018-12-02T16:55:17.586Z,3.53
2018-12-02T16:59:54.723Z,4.50
2018-12-02T17:02:23.489Z,3.53
2018-12-02T17:04:52.074Z,4.80
2018-12-02T17:07:20.592Z,4.23
2018-12-02T17:09:49.064Z,3.73
2018-12-02T17:12:17.774Z,2.73
2018-12-02T17:14:46.272Z,3.20
2018-12-02T17:17:14.878Z,3.10
2018-12-02T17:19:43.370Z,3.30
2018-12-02T17:22:11.910Z,2.80
2018-12-02T17:24:40.402Z,2.57
2018-12-02T17:27:08.929Z,2.70
2018-12-02T17:29:41.426Z,2.83
2018-12-02T17:32:10.021Z,2.70
2018-12-02T17:34:38.500Z,3.30
2018-12-02T17:37:07.307Z,2.70
2018-12-02T17:39:39.756Z,2.70
2018-12-02T17:42:10.225Z,2.40
2018-12-02T17:44:38.888Z,3.13
2018-12-02T17:47:07.785Z,2.50
2018-12-02T17:49:36.271Z,2.83
2018-12-02T17:52:05.516Z,3.03
2018-12-02T17:54:33.992Z,3.10
2018-12-02T17:57:02.486Z,2.90
2018-12-02T17:59:30.990Z,2.80
2018-12-02T18:01:59.471Z,3.13
2018-12-02T18:04:28.000Z,3.07
2018-12-02T18:06:56.490Z,3.03
2018-12-02T18:09:25.029Z,3.00
2018-12-02T18:11:53.607Z,3.67
2018-12-02T18:14:22.085Z,3.43
2018-12-02T18:16:50.589Z,3.80
2018-12-02T18:19:19.112Z,3.37
2018-12-02T18:21:47.886Z,3.93
2018-12-02T18:24:16.530Z,3.77
2018-12-02T18:26:45.061Z,3.70
2018-12-02T18:29:13.564Z,3.03
2018-12-02T18:31:42.246Z,3.90
2018-12-02T18:34:10.756Z,4.57
2018-12-02T18:36:39.930Z,4.57
2018-12-02T18:39:11.833Z,5.07
2018-12-02T18:41:43.483Z,4.93
2018-12-02T18:44:13.982Z,5.27
2018-12-02T18:46:42.531Z,4.63
2018-12-02T18:49:11.135Z,5.97
2018-12-02T18:51:39.706Z,5.00
2018-12-02T18:54:09.618Z,5.73
2018-12-02T18:56:38.558Z,4.93
2018-12-02T18:59:07.066Z,5.90
2018-12-02T19:01:35.594Z,5.83
2018-12-02T19:04:04.382Z,6.50
2018-12-02T19:06:32.890Z,6.60
2018-12-02T19:09:01.438Z,6.73
2018-12-02T19:11:30.007Z,6.13
2018-12-02T19:13:58.496Z,6.97
2018-12-02T19:16:26.966Z,7.37
2018-12-02T19:18:55.537Z,7.87
2018-12-02T19:21:25.984Z,7.97
2018-12-02T19:23:56.013Z,7.40
2018-12-02T19:26:24.558Z,6.97
2018-12-02T19:28:53.249Z,7.97
2018-12-02T19:31:21.767Z,9.67
2018-12-02T19:33:52.253Z,9.63
2018-12-02T19:36:54.991Z,8.13
2018-12-02T19:39:23.469Z,6.57
2018-12-02T19:41:52.233Z,6.40
2018-12-02T19:44:20.727Z,6.17
2018-12-02T19:46:49.219Z,6.20
2018-12-02T19:49:17.767Z,5.13
2018-12-02T19:51:46.260Z,5.30
2018-12-02T19:54:14.752Z,6.10
2018-12-02T19:56:43.259Z,4.50
2018-12-02T19:59:11.939Z,4.43
2018-12-02T20:01:40.422Z,5.27
2018-12-02T20:04:08.884Z,5.70
2018-12-02T20:06:37.691Z,4.20
2018-12-02T20:09:09.450Z,5.43
2018-12-02T20:11:38.140Z,4.50
2018-12-02T20:14:07.080Z,6.20
2018-12-02T20:16:35.561Z,6.47
2018-12-02T20:19:08.270Z,5.00
2018-12-02T20:21:36.790Z,5.00
2018-12-02T20:24:10.984Z,4.47
2018-12-02T20:26:39.474Z,4.70
2018-12-02T20:29:08.008Z,4.27
2018-12-02T20:31:36.648Z,4.20
2018-12-02T20:34:05.868Z,4.43
2018-12-02T20:36:34.340Z,5.00
2018-12-02T20:39:03.082Z,4.30
2018-12-02T20:41:31.574Z,3.90
2018-12-02T20:44:00.074Z,4.30
2018-12-02T20:46:28.652Z,3.90
2018-12-02T20:48:57.142Z,3.97
2018-12-02T20:51:25.659Z,4.30
2018-12-02T20:53:54.142Z,4.50
2018-12-02T20:56:22.712Z,4.67
2018-12-02T20:58:51.396Z,5.10
2018-12-02T21:01:19.862Z,4.73
2018-12-02T21:03:49.107Z,4.30
2018-12-02T21:06:19.480Z,4.90
2018-12-02T21:08:48.190Z,4.23
2018-12-02T21:11:16.836Z,5.10
2018-12-02T21:13:45.346Z,4.10
2018-12-02T21:16:13.861Z,5.30
2018-12-02T21:18:42.334Z,4.77
2018-12-02T21:21:10.990Z,5.07
2018-12-02T21:23:39.492Z,5.67
2018-12-02T21:26:09.365Z,5.43
2018-12-02T21:28:39.075Z,4.33
2018-12-02T21:31:07.767Z,3.20
2018-12-02T21:33:36.279Z,3.17
2018-12-02T21:36:04.859Z,2.60
2018-12-02T21:38:33.351Z,3.00
2018-12-02T21:41:01.826Z,4.20
2018-12-02T21:43:30.341Z,6.03
2018-12-02T21:45:58.924Z,7.23
2018-12-02T21:48:27.397Z,6.20
2018-12-02T21:50:56.648Z,6.27
2018-12-02T21:53:25.242Z,5.23
2018-12-02T21:55:54.052Z,3.83
2018-12-02T21:58:22.820Z,3.53
2018-12-02T22:00:56.581Z,3.50
2018-12-02T22:03:25.188Z,3.50
2018-12-02T22:05:53.687Z,5.33
2018-12-02T22:08:22.291Z,4.30
2018-12-02T22:10:51.483Z,4.20
2018-12-02T22:13:19.967Z,4.07
2018-12-02T22:15:48.478Z,4.03
2018-12-02T22:18:17.040Z,3.90
2018-12-02T22:20:45.528Z,3.90
2018-12-02T22:23:14.082Z,3.93
2018-12-02T22:25:42.802Z,3.57
2018-12-02T22:28:11.558Z,3.70
2018-12-02T22:30:40.118Z,3.40
2018-12-02T22:33:08.612Z,4.20
2018-12-02T22:35:37.092Z,3.47
2018-12-02T22:38:05.792Z,2.83
2018-12-02T22:40:34.388Z,3.53
2018-12-02T22:43:03.188Z,3.17
2018-12-02T22:45:31.658Z,3.40
2018-12-02T22:48:00.136Z,3.17
2018-12-02T22:50:29.304Z,3.73
2018-12-02T22:52:59.096Z,3.23
2018-12-02T22:55:27.581Z,2.97
2018-12-02T22:57:56.112Z,3.30
2018-12-02T23:00:33.954Z,2.90
2018-12-02T23:03:03.822Z,2.87
2018-12-02T23:05:32.595Z,3.17
2018-12-02T23:08:01.430Z,3.47
2018-12-02T23:10:29.998Z,3.67
2018-12-02T23:12:58.655Z,3.73
2018-12-02T23:15:27.156Z,4.03
2018-12-02T23:17:55.858Z,4.10
2018-12-02T23:20:24.557Z,4.60
2018-12-02T23:22:53.158Z,4.67
2018-12-02T23:25:21.690Z,5.07
2018-12-02T23:27:50.154Z,5.33
2018-12-02T23:30:23.342Z,3.83
2018-12-02T23:32:51.810Z,4.30
2018-12-02T23:35:20.316Z,3.20
2018-12-02T23:37:48.864Z,3.17
2018-12-02T23:40:18.604Z,3.33
2018-12-02T23:42:47.076Z,3.87
2018-12-02T23:45:16.477Z,4.57
2018-12-02T23:47:44.984Z,4.03
2018-12-02T23:50:14.864Z,4.17
2018-12-02T23:52:43.497Z,3.50
2018-12-02T23:55:12.972Z,3.73
2018-12-02T23:57:41.464Z,3.57
